Time;durP1;ratioP1;P1;durP2;ratioP2;P2;SDS_P1;SDS_P2;PMS_P1;PMS_P2;Temp;Humidity;BMP_temperature;BMP_pressure;BME280_temperature;BME280_humidity;BME280_pressure;Samples;Min_cycle;Max_cycle;Signal;HPM_P1;HPM_P2
2022/07/30 00:00:32;;;;;;;15.90;6.75;;;;;;;17.57;54.83;100565.80;1701000;84;25821;-69
2022/07/30 00:03:00;;;;;;;14.30;5.80;;;;;;;17.57;54.93;100567.17;1702767;84;25593;-68
2022/07/30 00:05:27;;;;;;;9.93;5.05;;;;;;;17.57;54.91;100570.73;1701089;84;27341;-68
2022/07/30 00:07:53;;;;;;;9.18;3.80;;;;;;;17.55;54.95;100571.07;1700977;84;25550;-68
2022/07/30 00:10:21;;;;;;;6.90;2.75;;;;;;;17.56;54.86;100562.28;1701083;84;25555;-68
2022/07/30 00:12:48;;;;;;;5.17;2.55;;;;;;;17.56;54.84;100560.92;1701057;83;25709;-68
2022/07/30 00:15:15;;;;;;;2.25;2.00;;;;;;;17.56;54.90;100556.81;1701131;84;25416;-68
2022/07/30 00:17:41;;;;;;;6.58;1.60;;;;;;;17.55;55.03;100561.50;1701053;83;28040;-68
2022/07/30 00:20:09;;;;;;;6.08;2.40;;;;;;;17.53;54.99;100559.66;1700973;83;25467;-68
2022/07/30 00:22:35;;;;;;;5.00;1.75;;;;;;;17.55;55.20;100563.42;1701067;83;25550;-68
2022/07/30 00:25:02;;;;;;;4.25;1.60;;;;;;;17.54;55.20;100559.90;1719453;83;25685;-68
2022/07/30 00:27:30;;;;;;;3.45;1.35;;;;;;;17.54;55.31;100556.38;1721443;83;25637;-68
2022/07/30 00:29:56;;;;;;;2.47;1.40;;;;;;;17.53;55.35;100559.66;1721532;83;28150;-68
2022/07/30 00:32:22;;;;;;;2.27;1.40;;;;;;;17.51;55.26;100551.02;1721392;83;25483;-69
2022/07/30 00:34:48;;;;;;;3.15;1.52;;;;;;;17.52;55.39;100554.55;1721432;83;25464;-69
2022/07/30 00:37:15;;;;;;;3.12;1.40;;;;;;;17.49;55.36;100545.69;1721373;83;25685;-69
2022/07/30 00:39:41;;;;;;;1.90;1.67;;;;;;;17.49;55.41;100548.42;1721452;83;25630;-69
2022/07/30 00:42:08;;;;;;;4.95;1.45;;;;;;;17.49;55.52;100539.64;1721432;83;28347;-69
2022/07/30 00:44:34;;;;;;;2.75;1.80;;;;;;;17.50;55.59;100540.42;1721425;83;25727;-70
2022/07/30 00:47:01;;;;;;;2.45;1.57;;;;;;;17.48;55.59;100532.57;1721529;83;25506;-69
2022/07/30 00:49:27;;;;;;;1.80;1.52;;;;;;;17.47;55.75;100531.00;1721407;83;25604;-67
2022/07/30 00:51:54;;;;;;;5.30;1.80;;;;;;;17.47;55.66;100528.81;1721466;83;25486;-67
2022/07/30 00:54:20;;;;;;;2.98;2.25;;;;;;;17.47;55.76;100524.72;1721445;83;27416;-67
2022/07/30 00:56:47;;;;;;;6.08;2.15;;;;;;;17.47;55.89;100528.81;1721331;83;25495;-67
2022/07/30 00:59:15;;;;;;;2.50;1.50;;;;;;;17.45;55.79;100526.45;1721519;83;25450;-67
2022/07/30 01:01:41;;;;;;;2.55;1.40;;;;;;;17.45;55.83;100529.74;1721438;83;26399;-69
2022/07/30 01:04:10;;;;;;;6.72;1.52;;;;;;;17.44;55.91;100526.80;1721419;83;25465;-69
2022/07/30 01:06:36;;;;;;;3.58;1.52;;;;;;;17.45;56.00;100531.11;1721250;83;27354;-69
2022/07/30 01:09:04;;;;;;;2.87;1.37;;;;;;;17.45;56.24;100514.70;1721304;83;25695;-69
2022/07/30 01:11:38;;;;;;;2.37;1.60;;;;;;;17.45;56.14;100519.63;1721446;83;25461;-69
2022/07/30 01:14:07;;;;;;;4.58;1.40;;;;;;;17.45;56.29;100516.08;1721520;83;26488;-69
2022/07/30 01:16:35;;;;;;;4.37;1.55;;;;;;;17.44;56.19;100515.87;1721851;83;25396;-67
2022/07/30 01:22:06;;;;;;;2.75;1.77;;;;;;;17.46;56.46;100512.99;1721389;83;25558;-67
2022/07/30 01:24:38;;;;;;;4.72;2.22;;;;;;;17.46;56.61;100510.84;1709528;83;25213;-67
2022/07/30 01:27:05;;;;;;;5.83;1.60;;;;;;;17.44;56.57;100513.92;1701005;84;25604;-67
2022/07/30 01:29:33;;;;;;;1.67;1.57;;;;;;;17.44;56.54;100509.03;1701044;84;25656;-67
2022/07/30 01:32:02;;;;;;;1.72;1.45;;;;;;;17.42;56.66;100501.17;1701028;84;27492;-67
2022/07/30 01:34:34;;;;;;;3.00;1.67;;;;;;;17.40;56.69;100490.36;1701125;84;25392;-67
2022/07/30 01:37:03;;;;;;;3.37;1.75;;;;;;;17.37;56.82;100485.03;1701089;84;25592;-67
2022/07/30 01:39:30;;;;;;;3.67;1.77;;;;;;;17.35;56.92;100485.38;1701138;84;25649;-67
2022/07/30 01:41:58;;;;;;;2.33;1.85;;;;;;;17.33;57.04;100482.20;1701036;84;25415;-67
2022/07/30 01:44:27;;;;;;;4.42;1.75;;;;;;;17.31;57.17;100478.22;1700969;84;27329;-67
2022/07/30 01:46:55;;;;;;;2.80;1.80;;;;;;;17.31;57.35;100485.84;1701072;84;25585;-67
2022/07/30 01:49:23;;;;;;;3.77;1.87;;;;;;;17.29;57.42;100491.45;1701032;84;25487;-67
2022/07/30 01:51:51;;;;;;;2.92;2.00;;;;;;;17.29;57.39;100488.71;1700997;83;25674;-67
2022/07/30 01:54:20;;;;;;;5.15;1.95;;;;;;;17.29;57.48;100488.13;1701010;84;25472;-67
2022/07/30 01:56:49;;;;;;;3.35;1.92;;;;;;;17.28;57.64;100478.91;1701146;83;27942;-67
2022/07/30 01:59:19;;;;;;;2.65;2.30;;;;;;;17.25;57.71;100468.70;1701053;84;25660;-67
2022/07/30 02:01:46;;;;;;;3.75;1.95;;;;;;;17.24;57.93;100463.00;1701036;83;25601;-67
2022/07/30 02:04:12;;;;;;;2.40;1.55;;;;;;;17.21;57.85;100461.75;1701008;83;26265;-67
2022/07/30 02:07:12;;;;;;;3.58;1.67;;;;;;;17.21;58.29;100462.33;1701123;84;25413;-67
2022/07/30 02:09:44;;;;;;;3.62;1.47;;;;;;;17.20;58.31;100462.09;1701186;84;27409;-66
2022/07/30 02:12:27;;;;;;;4.95;2.35;;;;;;;17.18;58.32;100460.52;1701076;83;25493;-66
2022/07/30 02:15:11;;;;;;;3.20;1.80;;;;;;;17.17;58.50;100460.28;1681823;84;25623;-66
2022/07/30 02:18:01;;;;;;;2.30;1.75;;;;;;;17.18;58.82;100458.38;1701072;84;25633;-66
2022/07/30 02:20:31;;;;;;;2.95;1.90;;;;;;;17.17;58.61;100464.39;1701028;84;25550;-66
2022/07/30 02:23:02;;;;;;;4.92;2.05;;;;;;;17.15;58.72;100462.58;1700985;84;29441;-66
2022/07/30 02:25:32;;;;;;;2.85;1.77;;;;;;;17.15;58.64;100466.68;1700196;83;25486;-66
2022/07/30 02:28:04;;;;;;;6.25;1.75;;;;;;;17.14;58.83;100462.92;1701050;84;25464;-66
2022/07/30 02:30:35;;;;;;;5.65;1.95;;;;;;;17.13;58.96;100451.21;1700325;84;26149;-66
2022/07/30 02:33:11;;;;;;;5.53;1.87;;;;;;;17.14;59.10;100458.25;1701056;84;25586;-66
2022/07/30 02:35:36;;;;;;;2.67;1.80;;;;;;;17.13;59.16;100456.67;1700081;84;27334;-66
2022/07/30 02:38:04;;;;;;;4.75;1.87;;;;;;;17.13;59.12;100455.31;1700912;84;25561;-66
2022/07/30 02:40:31;;;;;;;5.05;2.02;;;;;;;17.13;59.34;100443.59;1701227;83;25481;-66
2022/07/30 02:43:00;;;;;;;4.95;1.80;;;;;;;17.12;59.37;100435.94;1700984;84;25673;-66
2022/07/30 02:45:28;;;;;;;7.47;2.52;;;;;;;17.12;59.26;100441.98;1702558;83;25652;-67
2022/07/30 02:48:01;;;;;;;3.02;1.77;;;;;;;17.09;59.40;100438.00;1701116;83;28106;-67
2022/07/30 02:50:30;;;;;;;2.62;1.92;;;;;;;17.09;59.44;100429.80;1700752;84;25839;-67
2022/07/30 02:52:59;;;;;;;2.17;1.70;;;;;;;17.07;59.58;100433.47;1701075;84;25475;-67
2022/07/30 02:55:29;;;;;;;3.83;1.80;;;;;;;17.06;59.58;100427.80;1701198;83;27796;-67
2022/07/30 02:57:58;;;;;;;2.55;1.70;;;;;;;17.06;59.74;100426.43;1701265;84;25641;-67
2022/07/30 03:00:26;;;;;;;3.37;2.22;;;;;;;17.06;59.86;100425.06;1701414;83;27564;-67
2022/07/30 03:02:55;;;;;;;4.17;1.83;;;;;;;17.06;59.79;100424.25;1701326;84;25399;-67
2022/07/30 03:05:24;;;;;;;1.80;1.62;;;;;;;17.05;60.01;100406.28;1701254;83;25494;-67
2022/07/30 03:07:52;;;;;;;3.83;1.82;;;;;;;17.06;60.04;100410.58;1701113;84;25659;-67
2022/07/30 03:10:20;;;;;;;4.33;2.47;;;;;;;17.04;60.19;100408.78;1701388;84;25403;-67
2022/07/30 03:12:49;;;;;;;4.72;2.15;;;;;;;17.01;60.18;100407.55;1701140;84;27969;-67
2022/07/30 03:15:16;;;;;;;2.75;1.90;;;;;;;16.99;60.40;100401.08;1701209;84;25594;-67
2022/07/30 03:17:47;;;;;;;5.33;1.77;;;;;;;16.98;60.25;100401.42;1701066;84;25541;-67
2022/07/30 03:20:17;;;;;;;4.03;2.15;;;;;;;16.99;60.60;100390.69;1700670;84;26544;-67
2022/07/30 03:22:49;;;;;;;4.47;1.70;;;;;;;16.96;60.68;100382.64;1701236;84;25445;-67
2022/07/30 03:25:23;;;;;;;3.42;1.70;;;;;;;16.97;60.85;100383.42;1700596;83;27300;-67
2022/07/30 03:27:51;;;;;;;3.40;1.70;;;;;;;16.95;60.69;100382.41;1701136;84;25395;-68
2022/07/30 03:30:18;;;;;;;4.00;1.80;;;;;;;16.96;60.79;100389.47;1701096;83;25621;-68
2022/07/30 03:32:45;;;;;;;5.20;1.77;;;;;;;16.99;60.96;100392.87;1701079;84;26221;-68
2022/07/30 03:35:12;;;;;;;3.45;2.00;;;;;;;17.00;60.99;100395.03;1701131;84;25432;-68
2022/07/30 03:37:40;;;;;;;5.97;2.08;;;;;;;17.02;61.14;100401.51;1701116;83;27281;-68
2022/07/30 03:40:08;;;;;;;3.02;1.80;;;;;;;17.03;61.16;100392.97;1700954;84;25414;-68
2022/07/30 03:42:35;;;;;;;3.62;2.00;;;;;;;17.03;61.16;100392.97;1701096;84;25399;-67
2022/07/30 03:45:05;;;;;;;3.80;1.90;;;;;;;17.05;61.29;100392.63;1701038;84;25675;-67
2022/07/30 03:47:35;;;;;;;2.25;1.98;;;;;;;17.08;61.23;100391.34;1701128;84;25429;-68
2022/07/30 03:50:04;;;;;;;4.95;2.15;;;;;;;17.10;61.34;100382.22;1701053;84;29495;-67
2022/07/30 03:52:34;;;;;;;5.15;1.90;;;;;;;17.12;61.41;100384.60;1701030;83;25411;-67
2022/07/30 03:55:04;;;;;;;3.92;1.72;;;;;;;17.13;61.46;100379.37;1701105;84;25567;-67
2022/07/30 03:57:31;;;;;;;2.40;2.08;;;;;;;17.14;61.44;100387.19;1701008;84;25694;-67
2022/07/30 03:59:57;;;;;;;2.30;1.70;;;;;;;17.18;61.53;100388.09;1701111;83;25438;-67
2022/07/30 04:02:23;;;;;;;2.72;1.72;;;;;;;17.21;61.38;100392.05;1701099;83;27379;-67
2022/07/30 04:04:52;;;;;;;7.00;2.47;;;;;;;17.23;61.48;100398.53;1700925;84;25546;-67
2022/07/30 04:07:19;;;;;;;4.70;1.92;;;;;;;17.23;61.53;100394.44;1701159;84;25546;-67
2022/07/30 04:09:45;;;;;;;3.08;1.77;;;;;;;17.24;61.58;100389.98;1701115;84;25733;-67
2022/07/30 04:12:12;;;;;;;2.40;1.70;;;;;;;17.26;61.61;100391.78;1701103;83;25412;-67
2022/07/30 04:14:42;;;;;;;2.25;1.47;;;;;;;17.27;61.63;100393.39;1701081;83;27372;-67
2022/07/30 04:17:49;;;;;;;3.72;1.95;;;;;;;17.27;61.68;100393.39;1700964;83;25563;-67
2022/07/30 04:20:28;;;;;;;4.35;2.00;;;;;;;17.32;61.75;100401.33;1701135;83;25440;-66
2022/07/30 04:22:58;;;;;;;7.35;2.17;;;;;;;17.34;61.73;100399.03;1701139;84;25831;-66
2022/07/30 04:25:25;;;;;;;3.70;2.08;;;;;;;17.39;61.81;100397.98;1701097;83;25492;-66
2022/07/30 04:27:53;;;;;;;3.27;1.98;;;;;;;17.52;62.14;100409.05;1701042;84;27432;-67
2022/07/30 04:30:19;;;;;;;3.08;1.87;;;;;;;17.46;61.80;100391.31;1700963;83;25722;-67
2022/07/30 04:32:45;;;;;;;4.85;1.77;;;;;;;17.52;62.05;100400.04;1701053;83;25426;-67
2022/07/30 04:35:11;;;;;;;2.70;1.65;;;;;;;17.58;62.17;100392.38;1700956;84;25697;-67
2022/07/30 04:37:38;;;;;;;3.05;2.20;;;;;;;17.63;62.10;100393.48;1701121;83;25547;-67
2022/07/30 04:40:06;;;;;;;3.62;1.98;;;;;;;17.67;62.14;100393.80;1701156;83;27309;-67
2022/07/30 04:42:32;;;;;;;4.00;1.80;;;;;;;17.73;62.21;100386.10;1700953;84;25575;-67
2022/07/30 04:44:59;;;;;;;2.85;1.90;;;;;;;17.79;62.02;100387.39;1700999;84;25578;-67
2022/07/30 04:47:25;;;;;;;4.45;2.05;;;;;;;17.84;61.99;100384.97;1701021;84;25788;-67
2022/07/30 04:49:54;;;;;;;3.95;1.90;;;;;;;17.90;61.99;100386.32;1701038;84;25584;-67
2022/07/30 04:52:21;;;;;;;2.87;1.77;;;;;;;17.98;62.00;100391.37;1701141;84;27977;-67
2022/07/30 04:55:04;;;;;;;2.40;1.80;;;;;;;18.06;61.90;100394.48;1700966;83;25400;-67
2022/07/30 04:57:32;;;;;;;3.55;2.12;;;;;;;18.15;61.81;100392.91;1701106;83;25661;-67
2022/07/30 04:59:59;;;;;;;4.25;1.67;;;;;;;18.24;61.78;100397.63;1701030;83;25632;-67
2022/07/30 05:02:29;;;;;;;4.05;1.70;;;;;;;18.31;61.66;100393.66;1701071;84;25456;-67
2022/07/30 05:04:58;;;;;;;4.60;1.85;;;;;;;18.41;61.53;100388.98;1701036;83;28107;-69
2022/07/30 05:07:26;;;;;;;2.25;1.90;;;;;;;18.50;61.35;100390.72;1701015;84;25775;-69
2022/07/30 05:09:53;;;;;;;2.40;1.60;;;;;;;18.56;61.25;100392.00;1701000;84;25650;-67
2022/07/30 05:12:20;;;;;;;3.58;2.33;;;;;;;18.60;60.94;100389.56;1701005;84;25582;-67
2022/07/30 05:14:46;;;;;;;2.83;1.98;;;;;;;18.68;61.17;100386.40;1701043;83;25609;-67
2022/07/30 05:17:12;;;;;;;6.92;2.02;;;;;;;18.76;60.95;100384.02;1701050;83;27997;-67
2022/07/30 05:19:38;;;;;;;2.47;1.75;;;;;;;18.83;60.80;100383.36;1700964;84;25512;-67
2022/07/30 05:22:04;;;;;;;3.52;1.90;;;;;;;18.96;61.03;100384.79;1701052;83;25602;-67
2022/07/30 05:24:30;;;;;;;3.95;2.17;;;;;;;19.11;60.83;100383.70;1701006;84;25888;-67
2022/07/30 05:26:56;;;;;;;3.05;1.72;;;;;;;19.25;60.71;100376.29;1720650;83;25541;-67
2022/07/30 05:29:23;;;;;;;7.45;1.87;;;;;;;19.41;60.56;100380.48;1721358;83;28012;-67
2022/07/30 05:31:49;;;;;;;3.33;1.55;;;;;;;19.54;60.22;100383.03;1721337;83;25704;-67
2022/07/30 05:34:15;;;;;;;2.10;1.90;;;;;;;19.63;59.83;100381.40;1721410;82;25576;-67
2022/07/30 05:36:43;;;;;;;5.83;1.98;;;;;;;19.71;59.71;100385.25;1721400;83;25545;-68
2022/07/30 05:39:10;;;;;;;4.72;1.95;;;;;;;19.78;59.57;100385.41;1721538;83;25576;-68
2022/07/30 05:41:36;;;;;;;6.62;2.30;;;;;;;19.88;59.44;100378.48;1721438;83;27359;-68
2022/07/30 05:44:02;;;;;;;2.12;1.65;;;;;;;19.96;59.01;100377.42;1721307;83;25739;-68
2022/07/30 05:46:30;;;;;;;4.53;2.08;;;;;;;20.02;58.99;100379.25;1721389;83;25401;-67
2022/07/30 05:48:56;;;;;;;2.77;2.05;;;;;;;20.09;58.79;100374.45;1721330;83;26302;-68
2022/07/30 05:51:22;;;;;;;4.35;1.70;;;;;;;20.12;58.46;100377.23;1721451;83;25447;-68
2022/07/30 05:53:51;;;;;;;6.25;1.95;;;;;;;20.15;58.42;100366.89;1721448;83;27326;-67
2022/07/30 05:56:17;;;;;;;3.42;1.80;;;;;;;20.18;58.15;100370.08;1721478;83;25675;-67
2022/07/30 05:58:43;;;;;;;5.62;2.00;;;;;;;20.20;58.20;100371.27;1721507;83;25431;-67
2022/07/30 06:01:09;;;;;;;3.42;1.90;;;;;;;20.23;57.98;100376.62;1721453;83;25701;-68
2022/07/30 06:03:36;;;;;;;8.35;1.85;;;;;;;20.26;57.93;100380.78;1721438;83;25466;-68
2022/07/30 06:06:04;;;;;;;4.90;1.77;;;;;;;20.26;57.96;100372.54;1721313;83;27351;-68
2022/07/30 06:08:30;;;;;;;6.78;1.80;;;;;;;20.30;58.08;100377.48;1721290;83;25921;-68
2022/07/30 06:10:56;;;;;;;3.45;1.90;;;;;;;20.36;58.13;100385.39;1721406;83;25592;-68
2022/07/30 06:13:22;;;;;;;2.15;1.95;;;;;;;20.39;57.92;100377.79;1721432;83;25682;-67
2022/07/30 06:15:48;;;;;;;2.80;1.57;;;;;;;20.39;57.87;100380.53;1721410;82;25485;-67
2022/07/30 06:18:14;;;;;;;5.03;1.67;;;;;;;20.38;57.70;100374.26;1690866;83;27379;-68
2022/07/30 06:20:40;;;;;;;3.30;2.00;;;;;;;20.42;57.71;100368.80;1721323;83;25448;-68
2022/07/30 06:23:07;;;;;;;5.67;1.57;;;;;;;20.40;57.71;100366.43;1721564;83;25635;-68
2022/07/30 06:25:33;;;;;;;2.12;1.92;;;;;;;20.39;57.58;100362.68;1716685;83;25591;-68
2022/07/30 06:27:59;;;;;;;6.20;1.65;;;;;;;20.38;57.54;100366.58;1701202;83;25399;-68
2022/07/30 06:30:27;;;;;;;6.28;2.60;;;;;;;20.39;57.72;100362.09;1701166;84;28038;-68
2022/07/30 06:32:53;;;;;;;4.28;1.85;;;;;;;20.40;57.69;100367.80;1701192;83;25399;-68
2022/07/30 06:35:20;;;;;;;5.08;2.12;;;;;;;20.39;57.69;100363.46;1701280;83;25407;-69
2022/07/30 06:37:46;;;;;;;4.65;1.98;;;;;;;20.38;57.66;100366.02;1701102;84;25617;-69
2022/07/30 06:40:14;;;;;;;2.05;1.72;;;;;;;20.32;57.54;100364.75;1701317;83;25596;-69
2022/07/30 06:42:40;;;;;;;5.03;2.05;;;;;;;20.33;57.75;100371.25;1701245;83;27509;-69
2022/07/30 06:45:09;;;;;;;2.52;1.82;;;;;;;20.35;57.64;100369.51;1701175;83;25557;-69
2022/07/30 06:47:35;;;;;;;2.92;1.95;;;;;;;20.39;57.91;100359.94;1701295;84;32329;-69
2022/07/30 06:50:02;;;;;;;4.53;1.80;;;;;;;20.41;57.74;100362.50;1701096;84;26379;-69
2022/07/30 06:52:28;;;;;;;2.42;1.98;;;;;;;20.43;57.85;100356.07;1701177;83;25462;-69
2022/07/30 06:54:54;;;;;;;2.12;1.57;;;;;;;20.49;57.98;100357.89;1701124;84;27932;-69
2022/07/30 06:57:20;;;;;;;4.00;1.95;;;;;;;20.58;58.04;100348.77;1701085;83;25588;-69
2022/07/30 06:59:46;;;;;;;3.77;1.90;;;;;;;20.65;57.73;100351.64;1701135;83;25458;-69
2022/07/30 07:02:13;;;;;;;8.48;2.08;;;;;;;20.71;57.80;100356.20;1701124;84;25702;-69
2022/07/30 07:04:39;;;;;;;3.45;2.37;;;;;;;20.84;58.13;100358.09;1701243;84;25557;-69
2022/07/30 07:07:05;;;;;;;2.55;1.80;;;;;;;20.98;57.88;100356.09;1701219;83;27341;-69
2022/07/30 07:09:31;;;;;;;2.67;1.85;;;;;;;21.06;57.70;100349.47;1701195;83;25556;-69
2022/07/30 07:11:57;;;;;;;4.58;2.20;;;;;;;21.16;57.43;100342.48;1701259;83;25571;-69
2022/07/30 07:14:23;;;;;;;2.80;1.80;;;;;;;21.20;57.38;100338.61;1701067;84;25638;-69
2022/07/30 07:16:49;;;;;;;4.28;2.05;;;;;;;21.26;57.16;100339.03;1701159;84;25463;-69
2022/07/30 07:19:15;;;;;;;3.37;1.70;;;;;;;21.31;57.25;100337.30;1701147;84;27325;-69
2022/07/30 07:21:42;;;;;;;4.33;1.82;;;;;;;21.42;57.13;100337.41;1701056;83;25555;-69
2022/07/30 07:24:08;;;;;;;4.15;2.05;;;;;;;21.61;57.37;100343.27;1701092;84;25400;-69
2022/07/30 07:26:35;;;;;;;7.75;2.40;;;;;;;21.85;57.24;100342.44;1711532;83;25675;-69
2022/07/30 07:29:01;;;;;;;3.30;1.80;;;;;;;22.06;57.46;100337.02;1721526;83;25621;-69
2022/07/30 07:31:27;;;;;;;2.10;1.70;;;;;;;22.32;57.17;100339.32;1721596;83;27551;-69
2022/07/30 07:33:57;;;;;;;5.62;1.90;;;;;;;22.54;56.55;100332.72;1721456;83;25762;-69
2022/07/30 07:36:26;;;;;;;3.37;1.92;;;;;;;22.68;55.78;100333.34;1721525;83;25443;-69
2022/07/30 07:38:52;;;;;;;4.08;1.72;;;;;;;22.73;55.43;100326.63;1721582;83;25639;-69
2022/07/30 07:41:18;;;;;;;2.80;1.90;;;;;;;22.80;55.26;100329.99;1721571;83;25466;-69
2022/07/30 07:43:44;;;;;;;3.12;2.20;;;;;;;22.89;54.56;100324.30;1721506;83;28011;-69
2022/07/30 07:46:15;;;;;;;3.02;1.98;;;;;;;22.97;54.68;100321.55;1721368;83;25533;-69
2022/07/30 07:48:38;;;;;;;2.30;2.10;;;;;;;23.15;54.50;100324.36;1720984;83;25609;-69
2022/07/30 07:51:05;;;;;;;3.95;1.82;;;;;;;23.30;54.10;100323.17;1721522;83;27786;-69
2022/07/30 07:53:31;;;;;;;4.30;2.00;;;;;;;23.41;53.84;100321.20;1721471;83;25610;-69
2022/07/30 07:55:58;;;;;;;4.30;2.25;;;;;;;23.51;53.30;100319.59;1721593;83;28121;-69
2022/07/30 07:58:25;;;;;;;4.97;2.62;;;;;;;23.64;53.36;100322.13;1721384;83;25459;-69
2022/07/30 08:00:52;;;;;;;2.87;1.98;;;;;;;23.81;52.81;100319.73;1721520;83;25633;-69
2022/07/30 08:03:18;;;;;;;3.47;1.75;;;;;;;24.01;52.91;100317.34;1721421;83;25616;-69
2022/07/30 08:05:45;;;;;;;2.17;1.98;;;;;;;24.32;52.99;100314.84;1721531;83;25475;-69
2022/07/30 08:08:11;;;;;;;4.53;2.10;;;;;;;24.65;51.84;100311.31;1721474;82;27306;-69
2022/07/30 08:10:38;;;;;;;3.52;2.12;;;;;;;24.97;51.61;100313.25;1721423;83;25530;-69
2022/07/30 08:13:04;;;;;;;3.05;2.10;;;;;;;25.13;50.76;100311.36;1721501;83;25642;-69
2022/07/30 08:15:30;;;;;;;6.47;1.90;;;;;;;25.24;50.12;100310.48;1721447;83;25642;-69
2022/07/30 08:17:57;;;;;;;7.58;2.30;;;;;;;25.39;50.21;100308.37;1721506;83;25560;-69
2022/07/30 08:20:23;;;;;;;3.65;1.70;;;;;;;25.77;50.82;100305.02;1721487;83;27389;-69
2022/07/30 08:22:50;;;;;;;5.20;3.10;;;;;;;26.11;49.72;100302.09;1721349;83;25551;-69
2022/07/30 08:25:18;;;;;;;4.30;3.25;;;;;;;26.46;48.65;100299.45;1721431;83;25397;-69
2022/07/30 08:27:45;;;;;;;4.33;2.40;;;;;;;26.86;48.65;100291.33;1704210;83;27827;-69
2022/07/30 08:30:12;;;;;;;5.80;2.33;;;;;;;27.26;48.16;100291.47;1701120;83;25592;-69
2022/07/30 08:32:39;;;;;;;6.67;2.00;;;;;;;27.42;47.14;100288.02;1701077;84;27305;-69
2022/07/30 08:35:07;;;;;;;9.13;1.90;;;;;;;27.48;46.65;100278.59;1701019;84;25646;-67
2022/07/30 08:37:33;;;;;;;2.08;1.75;;;;;;;27.67;45.73;100286.17;1701171;84;25600;-67
2022/07/30 08:39:59;;;;;;;3.90;2.17;;;;;;;27.83;45.84;100279.11;1700994;84;26271;-68
2022/07/30 08:42:27;;;;;;;5.25;2.12;;;;;;;28.10;45.53;100276.97;1701130;84;25553;-68
2022/07/30 08:44:56;;;;;;;2.33;2.12;;;;;;;28.36;45.01;100285.55;1701080;84;28201;-68
2022/07/30 08:47:31;;;;;;;2.98;2.10;;;;;;;28.43;44.25;100281.82;1700959;84;25716;-68
2022/07/30 08:50:03;;;;;;;3.77;1.82;;;;;;;28.43;43.78;100283.21;1668620;86;25426;-68
2022/07/30 08:52:27;;;;;;;7.00;2.02;;;;;;;28.44;43.35;100281.39;1669078;85;25638;-68
2022/07/30 08:54:55;;;;;;;2.92;2.08;;;;;;;28.37;43.13;100284.34;1701220;83;25475;-68
2022/07/30 08:57:22;;;;;;;4.95;1.77;;;;;;;28.19;42.72;100283.95;1701130;84;27458;-68
2022/07/30 08:59:50;;;;;;;3.62;1.95;;;;;;;27.90;42.15;100278.34;1701027;83;25620;-68
2022/07/30 09:02:16;;;;;;;3.95;1.62;;;;;;;27.73;42.78;100277.50;1701321;83;25685;-68
2022/07/30 09:04:42;;;;;;;4.90;1.80;;;;;;;27.49;42.31;100278.16;1701042;84;25668;-68
2022/07/30 09:07:09;;;;;;;5.17;2.47;;;;;;;27.29;42.64;100282.91;1701069;83;25418;-68
2022/07/30 09:09:35;;;;;;;5.10;1.95;;;;;;;27.11;42.93;100284.59;1701068;84;28017;-68
2022/07/30 09:12:01;;;;;;;4.03;1.80;;;;;;;27.01;43.18;100279.40;1701026;84;25640;-68
2022/07/30 09:14:27;;;;;;;2.62;2.00;;;;;;;26.89;43.10;100284.94;1701142;83;25607;-68
2022/07/30 09:16:57;;;;;;;3.83;2.25;;;;;;;26.74;42.97;100286.38;1700988;84;25715;-68
2022/07/30 09:19:23;;;;;;;2.33;1.95;;;;;;;26.58;43.46;100285.58;1701109;84;25396;-68
2022/07/30 09:22:00;;;;;;;2.85;2.10;;;;;;;26.46;43.67;100286.36;1701034;83;28069;-68
2022/07/30 09:24:27;;;;;;;2.45;1.65;;;;;;;26.40;44.04;100276.92;1701037;83;25411;-68
2022/07/30 09:27:06;;;;;;;4.55;1.95;;;;;;;26.34;43.68;100271.69;1700986;83;25408;-68
2022/07/30 09:29:32;;;;;;;7.15;2.83;;;;;;;26.23;43.97;100270.42;1701151;84;25809;-68
2022/07/30 09:32:06;;;;;;;2.85;1.60;;;;;;;26.28;44.02;100266.41;1701074;84;25483;-68
2022/07/30 09:34:37;;;;;;;6.05;2.22;;;;;;;26.32;43.91;100268.52;1701050;84;27902;-68
2022/07/30 09:37:15;;;;;;;5.53;1.82;;;;;;;26.36;43.89;100267.89;1700929;83;25683;-68
2022/07/30 09:39:43;;;;;;;2.77;1.50;;;;;;;26.54;44.20;100270.99;1701106;83;25423;-68
2022/07/30 09:42:24;;;;;;;6.62;2.00;;;;;;;26.61;43.53;100269.49;1701030;83;26377;-68
2022/07/30 09:44:52;;;;;;;5.67;2.10;;;;;;;26.46;43.60;100267.56;1701027;84;25648;-68
2022/07/30 09:47:33;;;;;;;3.77;2.27;;;;;;;26.41;43.78;100268.80;1701019;83;27378;-68
2022/07/30 09:50:06;;;;;;;5.67;1.92;;;;;;;26.33;43.72;100261.78;1700907;84;25558;-67
2022/07/30 09:52:34;;;;;;;3.98;2.20;;;;;;;26.15;43.72;100266.78;1701152;84;25616;-67
2022/07/30 09:55:00;;;;;;;4.33;1.95;;;;;;;26.02;43.94;100269.34;1701073;83;25613;-68
2022/07/30 09:57:26;;;;;;;2.85;1.95;;;;;;;25.90;44.10;100265.11;1701211;84;25644;-68
2022/07/30 09:59:54;;;;;;;3.47;2.00;;;;;;;25.77;44.03;100263.47;1701167;84;27982;-68
2022/07/30 10:02:32;;;;;;;8.25;2.37;;;;;;;25.56;44.35;100272.02;1701110;84;25646;-68
2022/07/30 10:05:11;;;;;;;6.27;2.67;;;;;;;25.37;44.57;100274.20;1701449;83;25405;-68
2022/07/30 10:07:38;;;;;;;2.55;2.00;;;;;;;25.19;44.88;100265.25;1701096;84;26164;-68
2022/07/30 10:10:07;;;;;;;3.55;2.22;;;;;;;25.00;45.25;100266.01;1701268;83;25640;-68
2022/07/30 10:12:34;;;;;;;4.53;2.05;;;;;;;24.82;45.58;100264.76;1701309;83;27299;-68
2022/07/30 10:15:03;;;;;;;2.37;2.17;;;;;;;24.76;46.00;100270.55;1701102;83;25380;-68
2022/07/30 10:17:33;;;;;;;5.55;2.00;;;;;;;24.61;46.06;100276.78;1701280;84;25642;-68
2022/07/30 10:20:00;;;;;;;2.42;2.20;;;;;;;24.45;46.38;100275.88;1701126;83;25633;-68
2022/07/30 10:22:27;;;;;;;4.95;1.98;;;;;;;24.29;46.86;100280.48;1701152;84;25471;-68
2022/07/30 10:24:54;;;;;;;4.37;2.47;;;;;;;24.13;47.36;100275.45;1701155;84;27332;-68
2022/07/30 10:27:22;;;;;;;5.30;2.25;;;;;;;23.96;47.52;100283.22;1698609;83;25741;-68
2022/07/30 10:29:49;;;;;;;6.78;2.98;;;;;;;23.83;48.02;100278.72;1665359;84;25572;-68
2022/07/30 10:32:16;;;;;;;6.87;2.50;;;;;;;23.78;48.40;100285.41;1694904;84;27835;-68
2022/07/30 10:34:42;;;;;;;3.30;2.42;;;;;;;23.71;48.57;100281.89;1694928;84;25602;-68
2022/07/30 10:37:11;;;;;;;7.15;2.58;;;;;;;23.65;48.87;100287.02;1694881;84;28014;-68
2022/07/30 10:39:45;;;;;;;3.45;2.70;;;;;;;23.59;49.49;100291.39;1694944;84;25708;-68
2022/07/30 10:42:48;;;;;;;3.70;2.35;;;;;;;23.50;50.39;100290.42;1694979;83;25435;-68
2022/07/30 10:45:26;;;;;;;2.65;2.25;;;;;;;23.37;50.45;100289.26;1694839;83;25644;-68
2022/07/30 10:47:54;;;;;;;4.65;2.67;;;;;;;23.27;51.27;100282.56;1694880;84;25439;-68
2022/07/30 10:50:28;;;;;;;3.62;2.60;;;;;;;23.24;52.41;100277.83;1695097;84;27315;-68
2022/07/30 10:52:59;;;;;;;5.45;2.80;;;;;;;23.20;52.94;100276.45;1693702;83;25775;-68
2022/07/30 10:55:34;;;;;;;7.65;2.62;;;;;;;23.13;53.78;100275.09;1694917;84;25573;-68
2022/07/30 10:58:07;;;;;;;7.05;2.80;;;;;;;23.03;54.45;100276.63;1694909;84;25659;-68
2022/07/30 11:00:54;;;;;;;6.25;2.67;;;;;;;22.93;54.54;100273.28;1694956;84;25678;-68
2022/07/30 11:03:26;;;;;;;4.28;2.70;;;;;;;22.89;55.46;100269.75;1694895;84;28043;-68
2022/07/30 11:06:18;;;;;;;5.05;2.85;;;;;;;22.88;56.42;100275.06;1694770;82;25684;-68
2022/07/30 11:08:47;;;;;;;2.83;2.60;;;;;;;22.88;56.54;100275.06;1694855;84;25447;-67
2022/07/30 11:11:29;;;;;;;5.22;3.00;;;;;;;22.87;57.45;100267.38;1694957;84;27798;-68
2022/07/30 11:14:00;;;;;;;4.35;2.80;;;;;;;22.86;57.30;100276.05;1694892;84;25451;-67
2022/07/30 11:16:37;;;;;;;5.15;2.90;;;;;;;22.85;57.94;100283.55;1694924;84;27306;-67
2022/07/30 11:19:15;;;;;;;3.02;2.72;;;;;;;22.86;57.99;100284.32;1694829;84;25633;-68
2022/07/30 11:21:39;;;;;;;4.53;2.80;;;;;;;22.83;58.39;100280.97;1694793;83;25618;-68
2022/07/30 11:24:05;;;;;;;4.20;2.90;;;;;;;22.80;58.59;100278.98;1694836;84;26166;-68
2022/07/30 11:26:59;;;;;;;3.17;2.87;;;;;;;22.78;59.10;100279.38;1694901;84;25652;-68
2022/07/30 11:29:40;;;;;;;5.67;3.02;;;;;;;22.74;59.31;100278.59;1670837;85;27340;-68
2022/07/30 11:32:29;;;;;;;3.33;3.00;;;;;;;22.71;59.68;100276.05;1648380;87;27310;-68
2022/07/30 11:35:21;;;;;;;4.53;3.02;;;;;;;22.70;60.32;100273.09;1648583;87;25521;-68